createdAt,value
2022-10-28T00:00:18.665Z,86.11
2022-10-28T00:02:48.521Z,86.54
2022-10-28T00:05:18.402Z,85.73
2022-10-28T00:07:48.148Z,85.54
2022-10-28T00:10:17.904Z,85.82
2022-10-28T00:12:47.645Z,85.99
2022-10-28T00:15:20.323Z,86.06
2022-10-28T00:17:50.190Z,86.72
2022-10-28T00:20:20.248Z,86.58
2022-10-28T00:22:49.987Z,87.64
2022-10-28T00:25:24.597Z,88.23
2022-10-28T00:27:54.745Z,88.48
2022-10-28T00:30:27.325Z,88.24
2022-10-28T00:32:57.140Z,88.32
2022-10-28T00:35:26.867Z,88.88
2022-10-28T00:37:56.681Z,89.50
2022-10-28T00:40:26.399Z,89.36
2022-10-28T00:42:56.268Z,89.31
2022-10-28T00:45:28.823Z,88.75
2022-10-28T00:48:01.353Z,88.14
2022-10-28T00:50:43.734Z,87.77
2022-10-28T00:53:19.931Z,88.04
2022-10-28T00:55:51.459Z,87.24
2022-10-28T00:58:23.964Z,87.45
2022-10-28T01:00:57.005Z,87.70
2022-10-28T01:03:27.027Z,87.97
2022-10-28T01:05:57.240Z,87.37
2022-10-28T01:08:26.950Z,86.99
2022-10-28T01:11:23.933Z,86.75
2022-10-28T01:14:08.303Z,87.00
2022-10-28T01:16:50.705Z,87.32
2022-10-28T01:19:51.634Z,87.10
2022-10-28T01:22:26.836Z,87.72
2022-10-28T01:25:17.375Z,87.55
2022-10-28T01:28:12.516Z,87.98
2022-10-28T01:31:04.623Z,88.56
2022-10-28T01:33:38.239Z,88.75
2022-10-28T01:36:14.738Z,88.63
2022-10-28T01:38:53.249Z,88.63
2022-10-28T01:41:33.446Z,88.76
2022-10-28T01:44:10.134Z,89.01
2022-10-28T01:46:48.235Z,88.83
2022-10-28T01:49:25.712Z,88.19
2022-10-28T01:51:58.628Z,87.91
2022-10-28T01:54:32.966Z,87.39
2022-10-28T01:57:05.008Z,86.89
2022-10-28T01:59:37.000Z,87.66
2022-10-28T02:02:09.556Z,86.79
2022-10-28T02:04:39.347Z,86.89
2022-10-28T02:07:09.261Z,86.64
2022-10-28T02:10:09.152Z,85.64
2022-10-28T02:12:40.708Z,86.14
2022-10-28T02:15:28.795Z,86.06
2022-10-28T02:18:15.231Z,86.17
2022-10-28T02:20:52.330Z,85.63
2022-10-28T02:23:30.081Z,85.89
2022-10-28T02:26:04.728Z,85.96
2022-10-28T02:28:44.130Z,85.78
2022-10-28T02:31:23.154Z,86.02
2022-10-28T02:34:00.052Z,86.56
2022-10-28T02:36:35.397Z,86.26
2022-10-28T02:39:07.024Z,86.89
2022-10-28T02:41:42.883Z,86.60
2022-10-28T02:44:15.816Z,86.69
2022-10-28T02:46:48.108Z,86.07
2022-10-28T02:49:20.543Z,85.74
2022-10-28T02:51:55.636Z,85.54
2022-10-28T02:54:30.350Z,85.36
2022-10-28T02:57:04.208Z,85.12
2022-10-28T02:59:33.943Z,84.97
2022-10-28T03:02:03.753Z,84.75
2022-10-28T03:04:36.272Z,84.73
2022-10-28T03:07:06.066Z,84.12
2022-10-28T03:09:35.803Z,84.07
2022-10-28T03:12:05.613Z,84.23
2022-10-28T03:14:35.416Z,84.05
2022-10-28T03:17:05.168Z,84.53
2022-10-28T03:19:37.627Z,84.09
2022-10-28T03:22:07.597Z,84.14
2022-10-28T03:24:37.380Z,83.78
2022-10-28T03:27:07.090Z,83.90
2022-10-28T03:29:36.835Z,83.85
2022-10-28T03:32:06.902Z,83.54
2022-10-28T03:34:39.247Z,83.02
2022-10-28T03:37:08.977Z,83.33
2022-10-28T03:39:38.829Z,83.18
2022-10-28T03:42:08.811Z,83.71
2022-10-28T03:44:38.551Z,83.67
2022-10-28T03:47:08.320Z,84.01
2022-10-28T03:49:40.704Z,83.98
2022-10-28T03:52:10.446Z,84.14
2022-10-28T03:54:40.191Z,83.70
2022-10-28T03:57:09.934Z,83.59
2022-10-28T03:59:39.695Z,83.64
2022-10-28T04:02:09.557Z,83.11
2022-10-28T04:04:41.935Z,82.92
2022-10-28T04:07:11.771Z,83.48
2022-10-28T04:09:42.814Z,83.24
2022-10-28T04:12:14.108Z,83.07
2022-10-28T04:14:43.838Z,83.27
2022-10-28T04:17:13.701Z,83.57
2022-10-28T04:19:46.007Z,83.36
2022-10-28T04:22:15.746Z,83.31
2022-10-28T04:24:45.534Z,82.71
2022-10-28T04:27:15.292Z,82.96
2022-10-28T04:29:47.421Z,82.74
2022-10-28T04:32:18.310Z,82.60
2022-10-28T04:34:50.666Z,83.10
2022-10-28T04:37:21.480Z,82.86
2022-10-28T04:39:53.366Z,83.08
2022-10-28T04:42:23.195Z,83.46
2022-10-28T04:44:56.997Z,83.15
2022-10-28T04:47:27.802Z,82.72
2022-10-28T04:50:00.181Z,82.81
2022-10-28T04:52:30.022Z,82.79
2022-10-28T04:54:59.798Z,83.04
2022-10-28T04:57:30.660Z,82.88
2022-10-28T05:00:00.414Z,83.22
2022-10-28T05:02:34.011Z,83.78
2022-10-28T05:05:06.751Z,83.92
2022-10-28T05:07:37.376Z,83.67
2022-10-28T05:10:09.465Z,83.84
2022-10-28T05:12:40.610Z,83.68
2022-10-28T05:15:12.433Z,83.44
2022-10-28T05:17:46.536Z,83.02
2022-10-28T05:20:21.874Z,83.03
2022-10-28T05:22:53.905Z,83.39
2022-10-28T05:25:24.979Z,82.94
2022-10-28T05:27:56.783Z,83.27
2022-10-28T05:30:26.645Z,82.90
2022-10-28T05:33:04.048Z,82.82
2022-10-28T05:35:43.098Z,82.77
2022-10-28T05:38:14.501Z,82.41
2022-10-28T05:40:45.052Z,83.04
2022-10-28T05:43:16.791Z,81.72
2022-10-28T05:45:46.775Z,81.95
2022-10-28T05:48:18.607Z,82.25
2022-10-28T05:50:51.135Z,82.39
2022-10-28T05:53:20.920Z,81.91
2022-10-28T05:55:50.903Z,83.01
2022-10-28T05:58:20.729Z,82.63
2022-10-28T06:00:50.507Z,82.77
2022-10-28T06:03:28.534Z,83.03
2022-10-28T06:06:03.667Z,83.24
2022-10-28T06:08:33.548Z,83.72
2022-10-28T06:11:02.573Z,83.47
2022-10-28T06:13:33.464Z,83.06
2022-10-28T06:16:03.407Z,82.96
2022-10-28T06:18:33.241Z,83.44
2022-10-28T06:21:07.030Z,83.25
2022-10-28T06:23:37.093Z,83.84
2022-10-28T06:26:07.586Z,83.80
2022-10-28T06:28:38.237Z,84.21
2022-10-28T06:31:10.370Z,83.82
2022-10-28T06:33:40.256Z,84.33
2022-10-28T06:36:13.907Z,83.88
2022-10-28T06:38:46.077Z,84.09
2022-10-28T06:41:17.907Z,84.83
2022-10-28T06:43:49.770Z,84.99
2022-10-28T06:46:19.586Z,85.33
2022-10-28T06:48:51.064Z,85.71
2022-10-28T06:51:23.807Z,85.37
2022-10-28T06:53:54.459Z,85.71
2022-10-28T06:56:25.609Z,85.29
2022-10-28T06:58:56.711Z,85.52
2022-10-28T07:01:30.153Z,85.01
2022-10-28T07:04:00.025Z,85.29
2022-10-28T07:06:32.402Z,85.33
2022-10-28T07:09:02.236Z,85.41
2022-10-28T07:11:32.025Z,86.23
2022-10-28T07:14:04.149Z,86.02
2022-10-28T07:16:33.945Z,85.52
2022-10-28T07:19:03.727Z,85.38
2022-10-28T07:21:36.148Z,85.03
2022-10-28T07:24:11.933Z,85.01
2022-10-28T07:26:42.745Z,85.56
2022-10-28T07:29:12.530Z,85.24
2022-10-28T07:31:42.318Z,86.39
2022-10-28T07:34:12.187Z,86.35
2022-10-28T07:36:44.573Z,86.05
2022-10-28T07:39:14.378Z,86.93
2022-10-28T07:41:44.203Z,87.18
2022-10-28T07:44:14.265Z,86.31
2022-10-28T07:46:45.333Z,86.22
2022-10-28T07:49:15.116Z,86.49
2022-10-28T07:51:48.437Z,86.45
2022-10-28T07:54:19.253Z,86.93
2022-10-28T07:56:49.044Z,86.99
2022-10-28T07:59:25.756Z,86.59
2022-10-28T08:01:56.865Z,87.17
2022-10-28T08:04:26.713Z,86.94
2022-10-28T08:06:59.101Z,86.95
2022-10-28T08:09:28.869Z,86.95
2022-10-28T08:11:59.408Z,86.64
2022-10-28T08:14:29.220Z,86.34
2022-10-28T08:16:58.994Z,85.12
2022-10-28T08:19:30.167Z,84.98
2022-10-28T08:22:08.314Z,85.40
2022-10-28T08:24:38.064Z,85.54
2022-10-28T08:27:11.077Z,85.57
2022-10-28T08:29:41.902Z,86.41
2022-10-28T08:32:12.741Z,86.56
2022-10-28T08:34:43.836Z,86.45
2022-10-28T08:37:16.344Z,85.29
2022-10-28T08:39:46.285Z,84.80
2022-10-28T08:42:32.782Z,83.81
2022-10-28T08:45:22.893Z,83.33
2022-10-28T08:48:15.444Z,83.55
2022-10-28T08:50:51.253Z,82.88
2022-10-28T08:53:29.880Z,82.62
2022-10-28T08:56:14.343Z,82.95
2022-10-28T08:58:46.657Z,82.08
2022-10-28T09:01:22.951Z,82.42
2022-10-28T09:03:56.018Z,81.45
2022-10-28T09:06:26.795Z,81.24
2022-10-28T09:09:00.325Z,81.17
2022-10-28T09:11:48.604Z,80.49
2022-10-28T09:14:32.377Z,80.22
2022-10-28T09:17:15.328Z,79.60
2022-10-28T09:19:50.831Z,80.76
2022-10-28T09:22:27.760Z,79.34
2022-10-28T09:25:04.638Z,79.80
2022-10-28T09:27:52.681Z,79.13
2022-10-28T09:30:40.523Z,78.35
2022-10-28T09:33:22.524Z,79.15
2022-10-28T09:35:54.528Z,79.57
2022-10-28T09:38:30.343Z,79.06
2022-10-28T09:41:09.000Z,77.79
2022-10-28T09:43:45.582Z,77.68
2022-10-28T09:46:18.252Z,77.39
2022-10-28T09:48:50.967Z,77.58
2022-10-28T09:51:31.597Z,76.90
2022-10-28T09:54:02.815Z,76.76
2022-10-28T09:56:35.283Z,76.80
2022-10-28T09:59:07.224Z,75.77
2022-10-28T10:01:41.638Z,74.03
2022-10-28T10:04:21.441Z,75.27
2022-10-28T10:06:54.715Z,74.74
2022-10-28T10:09:28.210Z,74.79
2022-10-28T10:12:05.184Z,74.67
2022-10-28T10:14:41.710Z,74.94
2022-10-28T10:17:17.699Z,74.34
2022-10-28T10:20:01.927Z,73.79
2022-10-28T10:22:33.804Z,74.17
2022-10-28T10:25:03.866Z,74.30
2022-10-28T10:27:36.545Z,74.24
2022-10-28T10:30:07.281Z,73.56
2022-10-28T10:32:39.542Z,73.27
2022-10-28T10:35:23.995Z,72.16
2022-10-28T10:37:54.529Z,72.87
2022-10-28T10:40:31.121Z,71.99
2022-10-28T10:43:22.774Z,71.14
2022-10-28T10:45:56.240Z,71.53
2022-10-28T10:48:26.010Z,71.91
2022-10-28T10:50:57.283Z,72.09
2022-10-28T10:53:29.426Z,72.25
2022-10-28T10:56:02.207Z,70.52
2022-10-28T10:58:37.254Z,69.71
2022-10-28T11:01:10.083Z,69.75
2022-10-28T11:03:48.969Z,70.13
2022-10-28T11:06:24.904Z,69.12
2022-10-28T11:09:01.373Z,69.97
2022-10-28T11:11:39.075Z,71.13
2022-10-28T11:14:25.264Z,69.42
2022-10-28T11:16:56.733Z,70.76
2022-10-28T11:19:30.898Z,69.81
2022-10-28T11:22:26.949Z,68.02
2022-10-28T11:25:22.930Z,68.37
2022-10-28T11:28:04.375Z,67.48
2022-10-28T11:30:49.088Z,66.23
2022-10-28T11:33:30.675Z,66.73
2022-10-28T11:36:09.254Z,65.82
2022-10-28T11:39:04.797Z,66.83
2022-10-28T11:41:43.202Z,67.24
2022-10-28T11:44:27.575Z,67.20
2022-10-28T11:47:13.136Z,69.39
2022-10-28T11:50:10.066Z,68.41
2022-10-28T11:53:00.069Z,68.36
2022-10-28T11:55:36.684Z,69.89
2022-10-28T11:58:18.805Z,68.94
2022-10-28T12:01:03.363Z,69.44
2022-10-28T12:04:09.374Z,69.79
2022-10-28T12:07:03.812Z,69.76
2022-10-28T12:09:48.134Z,70.13
2022-10-28T12:12:26.226Z,70.96
2022-10-28T12:15:03.342Z,70.38
2022-10-28T12:17:40.686Z,70.44
2022-10-28T12:20:24.512Z,69.90
2022-10-28T12:22:57.550Z,70.59
2022-10-28T12:25:31.869Z,70.60
2022-10-28T12:28:06.009Z,70.82
2022-10-28T12:30:39.647Z,71.18
2022-10-28T12:33:17.078Z,70.72
2022-10-28T12:35:54.372Z,70.90
2022-10-28T12:38:31.223Z,70.56
2022-10-28T12:41:07.756Z,71.12
2022-10-28T12:43:42.002Z,71.05
2022-10-28T12:46:21.398Z,71.67
2022-10-28T12:48:57.611Z,71.50
2022-10-28T12:51:35.817Z,71.69
2022-10-28T12:54:17.849Z,72.09
2022-10-28T12:56:53.184Z,72.16
2022-10-28T12:59:30.633Z,72.08
2022-10-28T13:02:02.158Z,72.14
2022-10-28T13:04:32.238Z,72.75
2022-10-28T13:07:24.116Z,73.25
2022-10-28T13:10:02.239Z,72.68
2022-10-28T13:12:46.163Z,72.83
2022-10-28T13:15:37.045Z,71.95
2022-10-28T13:18:29.409Z,72.60
2022-10-28T13:21:08.770Z,71.45
2022-10-28T13:23:46.427Z,72.09
2022-10-28T13:26:25.779Z,71.68
2022-10-28T13:28:59.323Z,72.01
2022-10-28T13:31:40.338Z,72.63
2022-10-28T13:34:12.101Z,72.33
2022-10-28T13:36:43.765Z,72.95
2022-10-28T13:39:38.395Z,71.66
2022-10-28T13:42:37.956Z,71.13
2022-10-28T13:45:08.433Z,71.48
2022-10-28T13:47:39.128Z,71.93
2022-10-28T13:50:34.234Z,72.42
2022-10-28T13:53:42.516Z,72.09
2022-10-28T13:56:54.712Z,72.31
2022-10-28T13:59:49.437Z,73.39
2022-10-28T14:02:40.971Z,73.49
2022-10-28T14:05:13.535Z,73.40
2022-10-28T14:07:56.489Z,72.85
2022-10-28T14:10:29.423Z,73.21
2022-10-28T14:13:01.961Z,73.34
2022-10-28T14:15:36.732Z,73.78
2022-10-28T14:18:22.454Z,74.55
2022-10-28T14:21:02.035Z,74.14
2022-10-28T14:24:01.991Z,73.98
2022-10-28T14:26:31.783Z,74.41
2022-10-28T14:29:01.549Z,74.29
2022-10-28T14:31:47.450Z,73.86
2022-10-28T14:34:44.102Z,74.56
2022-10-28T14:37:47.570Z,74.30
2022-10-28T14:40:25.751Z,74.95
2022-10-28T14:43:09.086Z,75.38
2022-10-28T14:45:50.736Z,74.65
2022-10-28T14:48:48.713Z,74.55
2022-10-28T14:51:21.623Z,75.33
2022-10-28T14:53:54.996Z,75.46
2022-10-28T14:56:29.806Z,74.72
2022-10-28T14:59:02.459Z,75.27
2022-10-28T15:01:42.023Z,75.62
2022-10-28T15:04:23.985Z,75.77
2022-10-28T15:06:55.528Z,75.77
2022-10-28T15:09:27.928Z,75.91
2022-10-28T15:11:59.993Z,76.40
2022-10-28T15:14:36.755Z,76.85
2022-10-28T15:17:15.143Z,77.28
2022-10-28T15:19:49.603Z,77.30
2022-10-28T15:22:22.705Z,77.69
2022-10-28T15:25:14.970Z,77.12
2022-10-28T15:27:46.736Z,77.33
2022-10-28T15:30:19.055Z,76.95
2022-10-28T15:32:49.262Z,76.76
2022-10-28T15:35:42.432Z,76.08
2022-10-28T15:38:39.353Z,76.26
2022-10-28T15:41:42.291Z,76.84
2022-10-28T15:44:28.978Z,77.16
2022-10-28T15:46:59.178Z,77.86
2022-10-28T15:49:40.677Z,77.31
2022-10-28T15:52:34.724Z,77.06
2022-10-28T15:55:06.196Z,77.85
2022-10-28T15:57:50.628Z,73.51
2022-10-28T16:00:26.243Z,75.28
2022-10-28T16:03:01.166Z,76.47
2022-10-28T16:05:48.465Z,76.08
2022-10-28T16:08:24.480Z,76.86
2022-10-28T16:10:57.961Z,77.22
2022-10-28T16:13:31.380Z,77.59
2022-10-28T16:16:04.296Z,77.38
2022-10-28T16:18:37.525Z,78.18
2022-10-28T16:21:07.558Z,78.43
2022-10-28T16:23:42.108Z,78.27
2022-10-28T16:26:14.567Z,78.25
2022-10-28T16:28:45.240Z,78.15
2022-10-28T16:31:18.885Z,78.63
2022-10-28T16:33:48.774Z,78.70
2022-10-28T16:36:18.512Z,78.54
2022-10-28T16:38:50.841Z,78.23
2022-10-28T16:41:21.845Z,78.60
2022-10-28T16:43:51.576Z,78.61
2022-10-28T16:46:21.291Z,78.66
2022-10-28T16:48:51.015Z,78.91
2022-10-28T16:51:21.343Z,78.73
2022-10-28T16:53:54.736Z,79.36
2022-10-28T16:56:24.486Z,79.49
2022-10-28T16:58:54.737Z,79.74
2022-10-28T17:01:25.213Z,79.70
2022-10-28T17:03:55.055Z,79.82
2022-10-28T17:06:27.748Z,79.65
2022-10-28T17:09:03.312Z,79.29
2022-10-28T17:11:33.503Z,79.94
2022-10-28T17:14:03.228Z,80.00
2022-10-28T17:16:32.976Z,80.00
2022-10-28T17:19:02.862Z,80.49
2022-10-28T17:21:32.612Z,79.80
2022-10-28T17:24:06.403Z,79.66
2022-10-28T17:26:36.186Z,80.08
2022-10-28T17:29:07.249Z,79.33
2022-10-28T17:31:37.057Z,79.72
2022-10-28T17:34:06.881Z,79.65
2022-10-28T17:36:36.701Z,79.46
2022-10-28T17:39:13.626Z,78.29
2022-10-28T17:41:46.325Z,79.13
2022-10-28T17:44:16.060Z,78.79
2022-10-28T17:46:45.817Z,78.46
2022-10-28T17:49:15.618Z,77.88
2022-10-28T17:51:45.362Z,77.34
2022-10-28T17:54:17.723Z,77.54
2022-10-28T17:56:47.868Z,77.63
2022-10-28T17:59:18.876Z,77.84
2022-10-28T18:01:48.772Z,77.41
2022-10-28T18:04:19.972Z,77.93
2022-10-28T18:06:49.730Z,77.71
2022-10-28T18:09:22.771Z,76.89
2022-10-28T18:11:52.830Z,76.71
2022-10-28T18:14:22.904Z,75.65
2022-10-28T18:16:52.900Z,75.58
2022-10-28T18:19:22.715Z,75.66
2022-10-28T18:21:52.506Z,75.27
2022-10-28T18:24:26.123Z,74.81
2022-10-28T18:26:58.709Z,75.53
2022-10-28T18:29:29.289Z,75.54
2022-10-28T18:32:00.705Z,74.71
2022-10-28T18:34:30.571Z,74.65
2022-10-28T18:37:00.426Z,75.05
2022-10-28T18:39:33.320Z,75.01
2022-10-28T18:42:04.381Z,74.93
2022-10-28T18:44:34.368Z,74.75
2022-10-28T18:47:05.244Z,74.92
2022-10-28T18:49:36.072Z,74.35
2022-10-28T18:52:07.337Z,74.65
2022-10-28T18:54:39.749Z,75.07
2022-10-28T18:57:10.679Z,75.01
2022-10-28T19:00:12.422Z,75.34
2022-10-28T19:02:30.993Z,75.40
2022-10-28T19:05:00.925Z,75.54
2022-10-28T19:07:30.779Z,75.53
2022-10-28T19:10:03.168Z,75.33
2022-10-28T19:12:32.989Z,75.42
2022-10-28T19:15:02.768Z,75.14
2022-10-28T19:17:32.701Z,75.23
2022-10-28T19:20:02.472Z,75.04
2022-10-28T19:22:32.388Z,75.80
2022-10-28T19:25:04.783Z,75.89
2022-10-28T19:27:35.214Z,75.88
2022-10-28T19:30:07.897Z,76.26
2022-10-28T19:32:41.174Z,75.96
2022-10-28T19:35:12.064Z,76.73
2022-10-28T19:37:41.830Z,76.49
2022-10-28T19:40:14.492Z,76.87
2022-10-28T19:42:44.392Z,76.77
2022-10-28T19:45:14.327Z,76.37
2022-10-28T19:47:44.224Z,76.28
2022-10-28T19:50:14.117Z,76.75
2022-10-28T19:52:44.973Z,76.85
2022-10-28T19:55:18.525Z,77.04
2022-10-28T19:57:50.433Z,76.99
2022-10-28T20:00:22.901Z,76.97
2022-10-28T20:02:52.654Z,76.81
2022-10-28T20:05:23.478Z,77.49
2022-10-28T20:07:55.799Z,77.50
2022-10-28T20:10:28.480Z,77.49
2022-10-28T20:12:59.297Z,77.78
2022-10-28T20:15:30.222Z,78.20
2022-10-28T20:18:00.491Z,78.83
2022-10-28T20:20:30.259Z,79.28
2022-10-28T20:23:00.318Z,78.70
2022-10-28T20:25:33.922Z,78.93
2022-10-28T20:28:04.942Z,79.76
2022-10-28T20:30:34.725Z,80.05
2022-10-28T20:33:06.586Z,80.06
2022-10-28T20:35:37.706Z,79.91
2022-10-28T20:41:01.920Z,79.77
2022-10-28T20:43:34.008Z,80.11
2022-10-28T20:46:05.614Z,79.94
2022-10-28T20:48:36.047Z,79.95
2022-10-28T20:51:06.021Z,80.30
2022-10-28T20:53:37.653Z,80.18
2022-10-28T20:56:17.181Z,79.88
2022-10-28T20:58:47.119Z,80.10
2022-10-28T21:01:18.515Z,80.82
2022-10-28T21:03:48.912Z,80.65
2022-10-28T21:06:20.320Z,80.60
2022-10-28T21:08:50.120Z,81.17
2022-10-28T21:11:23.766Z,81.15
2022-10-28T21:13:55.258Z,81.25
2022-10-28T21:16:26.154Z,80.97
2022-10-28T21:19:00.724Z,81.23
2022-10-28T21:21:31.225Z,81.98
2022-10-28T21:24:02.033Z,82.10
2022-10-28T21:26:34.446Z,82.03
2022-10-28T21:29:05.384Z,82.51
2022-10-28T21:31:36.159Z,82.22
2022-10-28T21:34:08.550Z,82.29
2022-10-28T21:36:38.453Z,82.55
2022-10-28T21:39:10.465Z,82.88
2022-10-28T21:41:43.862Z,82.54
2022-10-28T21:44:13.739Z,82.70
2022-10-28T21:46:47.876Z,82.98
2022-10-28T21:49:18.710Z,82.98
2022-10-28T21:51:49.523Z,83.10
2022-10-28T21:54:20.358Z,83.45
2022-10-28T21:56:54.678Z,82.65
2022-10-28T21:59:24.417Z,83.41
2022-10-28T22:01:54.350Z,83.66
2022-10-28T22:04:24.250Z,83.89
2022-10-28T22:06:54.061Z,84.58
2022-10-28T22:09:25.804Z,84.42
2022-10-28T22:11:58.238Z,84.22
2022-10-28T22:14:28.053Z,84.36
2022-10-28T22:16:57.921Z,84.18
2022-10-28T22:19:28.647Z,84.81
2022-10-28T22:21:58.432Z,84.49
2022-10-28T22:24:29.173Z,84.58
2022-10-28T22:27:01.462Z,84.51
2022-10-28T22:29:31.271Z,84.67
2022-10-28T22:32:02.088Z,85.13
2022-10-28T22:34:31.920Z,85.33
2022-10-28T22:37:01.839Z,85.20
2022-10-28T22:39:32.648Z,84.94
2022-10-28T22:42:05.489Z,84.73
2022-10-28T22:44:35.244Z,85.03
2022-10-28T22:47:05.356Z,84.60
2022-10-28T22:49:35.084Z,84.97
2022-10-28T22:52:04.818Z,84.77
2022-10-28T22:54:34.580Z,85.15
2022-10-28T22:57:06.870Z,85.18
2022-10-28T22:59:36.577Z,85.68
2022-10-28T23:02:06.379Z,85.25
2022-10-28T23:04:36.347Z,85.55
2022-10-28T23:07:06.148Z,85.51
2022-10-28T23:09:35.850Z,85.68
2022-10-28T23:12:08.926Z,85.28
2022-10-28T23:14:38.656Z,85.96
2022-10-28T23:17:08.605Z,86.04
2022-10-28T23:19:38.294Z,85.78
2022-10-28T23:22:08.030Z,85.72
2022-10-28T23:24:37.783Z,86.04
2022-10-28T23:27:10.115Z,85.86
2022-10-28T23:29:39.839Z,86.56
2022-10-28T23:32:09.678Z,86.60
2022-10-28T23:34:39.405Z,87.00
2022-10-28T23:37:09.219Z,86.86
2022-10-28T23:39:38.937Z,87.28
2022-10-28T23:42:11.376Z,87.38
2022-10-28T23:44:41.183Z,87.70
2022-10-28T23:47:10.939Z,87.98
2022-10-28T23:49:40.625Z,88.34
2022-10-28T23:52:10.366Z,88.68
2022-10-28T23:54:40.145Z,88.43
2022-10-28T23:57:12.545Z,88.39
2022-10-28T23:59:42.289Z,88.80
